Terminal Aerodrome Forecast
Issued by NWS Duluth, MN

Home | Current Version | Previous Version | Text Only | Print | Product List | Glossary On
Versions: 1 2 3 4 5 6 7 8 9 10 11 12 13 14 15 16 17 18 19
000
FTUS43 KDLH 152300
TAFINL
TAF
KINL 152326Z 1600/1624 20011KT P6SM SCT250
     FM161400 21010KT P6SM VCSH BKN060
     FM161600 26008KT P6SM BKN060
     FM162100 32012KT P6SM SCT080=

USA.gov is the U.S. government's official web portal to all federal, state and local government web resources and services.